sensor_id;sensor_type;location;lat;lon;timestamp;P1;durP1;ratioP1;P2;durP2;ratioP2
33786;SDS011;29742;51.540;9.358;2023-05-07T00:01:16;0.40;;;0.40;;
33786;SDS011;29742;51.540;9.358;2023-05-07T00:06:17;0.47;;;0.30;;
33786;SDS011;29742;51.540;9.358;2023-05-07T00:11:17;0.20;;;0.20;;
33786;SDS011;29742;51.540;9.358;2023-05-07T00:16:18;0.70;;;0.30;;
33786;SDS011;29742;51.540;9.358;2023-05-07T00:21:18;0.38;;;0.38;;
33786;SDS011;29742;51.540;9.358;2023-05-07T00:26:18;0.20;;;0.20;;
33786;SDS011;29742;51.540;9.358;2023-05-07T00:31:19;0.40;;;0.40;;
33786;SDS011;29742;51.540;9.358;2023-05-07T00:36:19;0.43;;;0.40;;
33786;SDS011;29742;51.540;9.358;2023-05-07T00:41:20;0.40;;;0.40;;
33786;SDS011;29742;51.540;9.358;2023-05-07T00:46:20;0.50;;;0.40;;
33786;SDS011;29742;51.540;9.358;2023-05-07T00:51:21;0.90;;;0.50;;
33786;SDS011;29742;51.540;9.358;2023-05-07T00:56:21;1.23;;;0.43;;
33786;SDS011;29742;51.540;9.358;2023-05-07T01:01:22;0.52;;;0.52;;
33786;SDS011;29742;51.540;9.358;2023-05-07T01:06:22;0.35;;;0.35;;
33786;SDS011;29742;51.540;9.358;2023-05-07T01:11:23;0.60;;;0.40;;
33786;SDS011;29742;51.540;9.358;2023-05-07T01:16:25;0.22;;;0.22;;
33786;SDS011;29742;51.540;9.358;2023-05-07T01:21:26;0.75;;;0.40;;
33786;SDS011;29742;51.540;9.358;2023-05-07T01:26:27;0.55;;;0.40;;
33786;SDS011;29742;51.540;9.358;2023-05-07T01:31:27;0.65;;;0.43;;
33786;SDS011;29742;51.540;9.358;2023-05-07T01:36:29;0.30;;;0.30;;
33786;SDS011;29742;51.540;9.358;2023-05-07T01:41:30;0.40;;;0.40;;
33786;SDS011;29742;51.540;9.358;2023-05-07T01:46:30;0.47;;;0.40;;
33786;SDS011;29742;51.540;9.358;2023-05-07T01:51:31;0.50;;;0.50;;
33786;SDS011;29742;51.540;9.358;2023-05-07T01:56:31;0.65;;;0.57;;
33786;SDS011;29742;51.540;9.358;2023-05-07T02:01:32;0.50;;;0.50;;
33786;SDS011;29742;51.540;9.358;2023-05-07T02:06:32;0.60;;;0.50;;
33786;SDS011;29742;51.540;9.358;2023-05-07T02:11:33;0.45;;;0.40;;
33786;SDS011;29742;51.540;9.358;2023-05-07T02:16:33;0.73;;;0.55;;
33786;SDS011;29742;51.540;9.358;2023-05-07T02:21:33;1.27;;;0.60;;
33786;SDS011;29742;51.540;9.358;2023-05-07T02:26:34;0.70;;;0.60;;
33786;SDS011;29742;51.540;9.358;2023-05-07T02:31:34;0.68;;;0.57;;
33786;SDS011;29742;51.540;9.358;2023-05-07T02:36:35;0.60;;;0.60;;
33786;SDS011;29742;51.540;9.358;2023-05-07T02:41:35;0.60;;;0.60;;
33786;SDS011;29742;51.540;9.358;2023-05-07T02:46:35;0.60;;;0.60;;
33786;SDS011;29742;51.540;9.358;2023-05-07T02:51:36;1.00;;;0.63;;
33786;SDS011;29742;51.540;9.358;2023-05-07T02:56:36;0.55;;;0.52;;
33786;SDS011;29742;51.540;9.358;2023-05-07T03:01:37;0.52;;;0.52;;
33786;SDS011;29742;51.540;9.358;2023-05-07T03:06:37;0.68;;;0.60;;
33786;SDS011;29742;51.540;9.358;2023-05-07T03:11:37;1.13;;;0.68;;
33786;SDS011;29742;51.540;9.358;2023-05-07T03:16:38;0.63;;;0.50;;
33786;SDS011;29742;51.540;9.358;2023-05-07T03:21:38;0.82;;;0.75;;
33786;SDS011;29742;51.540;9.358;2023-05-07T03:26:39;0.80;;;0.43;;
33786;SDS011;29742;51.540;9.358;2023-05-07T03:31:39;0.60;;;0.60;;
33786;SDS011;29742;51.540;9.358;2023-05-07T03:36:39;1.02;;;0.85;;
33786;SDS011;29742;51.540;9.358;2023-05-07T03:41:40;0.60;;;0.52;;
33786;SDS011;29742;51.540;9.358;2023-05-07T03:46:40;0.57;;;0.57;;
33786;SDS011;29742;51.540;9.358;2023-05-07T03:51:41;0.85;;;0.60;;
33786;SDS011;29742;51.540;9.358;2023-05-07T03:56:41;0.73;;;0.68;;
33786;SDS011;29742;51.540;9.358;2023-05-07T04:01:41;0.70;;;0.63;;
33786;SDS011;29742;51.540;9.358;2023-05-07T04:06:42;0.82;;;0.82;;
33786;SDS011;29742;51.540;9.358;2023-05-07T04:11:42;0.73;;;0.55;;
33786;SDS011;29742;51.540;9.358;2023-05-07T04:16:43;0.80;;;0.60;;
33786;SDS011;29742;51.540;9.358;2023-05-07T04:21:43;0.73;;;0.73;;
33786;SDS011;29742;51.540;9.358;2023-05-07T04:26:43;1.05;;;0.95;;
33786;SDS011;29742;51.540;9.358;2023-05-07T04:31:44;0.65;;;0.60;;
33786;SDS011;29742;51.540;9.358;2023-05-07T04:36:44;0.98;;;0.75;;
33786;SDS011;29742;51.540;9.358;2023-05-07T04:41:46;0.95;;;0.75;;
33786;SDS011;29742;51.540;9.358;2023-05-07T04:46:46;0.75;;;0.65;;
33786;SDS011;29742;51.540;9.358;2023-05-07T04:51:46;1.05;;;0.80;;
33786;SDS011;29742;51.540;9.358;2023-05-07T04:56:47;1.33;;;1.00;;
33786;SDS011;29742;51.540;9.358;2023-05-07T05:01:47;1.02;;;0.60;;
33786;SDS011;29742;51.540;9.358;2023-05-07T05:06:48;1.17;;;0.70;;
33786;SDS011;29742;51.540;9.358;2023-05-07T05:11:48;0.70;;;0.65;;
33786;SDS011;29742;51.540;9.358;2023-05-07T05:16:48;0.75;;;0.60;;
33786;SDS011;29742;51.540;9.358;2023-05-07T05:21:49;1.75;;;1.15;;
33786;SDS011;29742;51.540;9.358;2023-05-07T05:26:49;0.75;;;0.75;;
33786;SDS011;29742;51.540;9.358;2023-05-07T05:31:49;0.50;;;0.50;;
33786;SDS011;29742;51.540;9.358;2023-05-07T05:36:50;0.60;;;0.60;;
33786;SDS011;29742;51.540;9.358;2023-05-07T05:41:50;0.93;;;0.88;;
33786;SDS011;29742;51.540;9.358;2023-05-07T05:46:51;0.98;;;0.77;;
33786;SDS011;29742;51.540;9.358;2023-05-07T05:51:51;0.90;;;0.73;;
33786;SDS011;29742;51.540;9.358;2023-05-07T05:56:51;1.10;;;0.77;;
33786;SDS011;29742;51.540;9.358;2023-05-07T06:01:52;0.88;;;0.75;;
33786;SDS011;29742;51.540;9.358;2023-05-07T06:06:52;1.10;;;0.90;;
33786;SDS011;29742;51.540;9.358;2023-05-07T06:11:53;0.95;;;0.65;;
33786;SDS011;29742;51.540;9.358;2023-05-07T06:16:53;0.68;;;0.68;;
33786;SDS011;29742;51.540;9.358;2023-05-07T06:21:53;0.63;;;0.60;;
33786;SDS011;29742;51.540;9.358;2023-05-07T06:26:56;0.65;;;0.65;;
33786;SDS011;29742;51.540;9.358;2023-05-07T06:32:05;1.23;;;0.88;;
33786;SDS011;29742;51.540;9.358;2023-05-07T06:37:09;0.85;;;0.70;;
33786;SDS011;29742;51.540;9.358;2023-05-07T06:42:09;1.00;;;0.90;;
33786;SDS011;29742;51.540;9.358;2023-05-07T06:47:10;1.70;;;1.13;;
33786;SDS011;29742;51.540;9.358;2023-05-07T06:52:10;1.02;;;0.80;;
33786;SDS011;29742;51.540;9.358;2023-05-07T06:57:10;1.48;;;0.90;;
33786;SDS011;29742;51.540;9.358;2023-05-07T07:02:11;0.90;;;0.80;;
33786;SDS011;29742;51.540;9.358;2023-05-07T07:07:11;1.23;;;1.08;;
33786;SDS011;29742;51.540;9.358;2023-05-07T07:12:12;3.47;;;2.15;;
33786;SDS011;29742;51.540;9.358;2023-05-07T07:17:12;3.63;;;2.33;;
33786;SDS011;29742;51.540;9.358;2023-05-07T07:22:12;2.67;;;2.10;;
33786;SDS011;29742;51.540;9.358;2023-05-07T07:27:13;3.65;;;2.65;;
33786;SDS011;29742;51.540;9.358;2023-05-07T07:32:13;3.58;;;2.58;;
33786;SDS011;29742;51.540;9.358;2023-05-07T07:37:14;3.35;;;2.83;;
33786;SDS011;29742;51.540;9.358;2023-05-07T07:42:14;4.05;;;3.15;;
33786;SDS011;29742;51.540;9.358;2023-05-07T07:47:14;4.40;;;3.15;;
33786;SDS011;29742;51.540;9.358;2023-05-07T07:52:15;3.47;;;2.63;;
33786;SDS011;29742;51.540;9.358;2023-05-07T07:57:15;2.75;;;2.10;;
33786;SDS011;29742;51.540;9.358;2023-05-07T08:02:16;3.65;;;2.30;;
33786;SDS011;29742;51.540;9.358;2023-05-07T08:07:16;3.78;;;2.55;;
33786;SDS011;29742;51.540;9.358;2023-05-07T08:12:20;3.83;;;2.47;;
33786;SDS011;29742;51.540;9.358;2023-05-07T08:17:20;2.90;;;2.42;;
33786;SDS011;29742;51.540;9.358;2023-05-07T08:22:22;2.75;;;2.33;;
33786;SDS011;29742;51.540;9.358;2023-05-07T08:27:22;3.13;;;2.45;;
33786;SDS011;29742;51.540;9.358;2023-05-07T08:32:23;2.75;;;2.10;;
33786;SDS011;29742;51.540;9.358;2023-05-07T08:37:23;3.80;;;2.55;;
33786;SDS011;29742;51.540;9.358;2023-05-07T08:42:23;2.53;;;2.20;;
33786;SDS011;29742;51.540;9.358;2023-05-07T08:47:29;3.53;;;2.50;;
33786;SDS011;29742;51.540;9.358;2023-05-07T08:52:35;2.25;;;1.95;;
33786;SDS011;29742;51.540;9.358;2023-05-07T08:57:35;4.03;;;2.63;;
33786;SDS011;29742;51.540;9.358;2023-05-07T09:02:36;2.25;;;1.98;;
33786;SDS011;29742;51.540;9.358;2023-05-07T09:07:36;2.40;;;2.20;;
33786;SDS011;29742;51.540;9.358;2023-05-07T09:12:37;3.33;;;2.03;;
33786;SDS011;29742;51.540;9.358;2023-05-07T09:17:39;2.90;;;2.20;;
33786;SDS011;29742;51.540;9.358;2023-05-07T09:22:41;2.60;;;2.17;;
33786;SDS011;29742;51.540;9.358;2023-05-07T09:27:41;2.60;;;2.30;;
33786;SDS011;29742;51.540;9.358;2023-05-07T09:32:42;3.65;;;2.30;;
33786;SDS011;29742;51.540;9.358;2023-05-07T09:37:42;3.55;;;2.40;;
33786;SDS011;29742;51.540;9.358;2023-05-07T09:42:43;1.95;;;1.65;;
33786;SDS011;29742;51.540;9.358;2023-05-07T09:47:43;2.40;;;2.03;;
33786;SDS011;29742;51.540;9.358;2023-05-07T09:52:47;2.10;;;1.77;;
33786;SDS011;29742;51.540;9.358;2023-05-07T09:57:52;1.85;;;1.60;;
33786;SDS011;29742;51.540;9.358;2023-05-07T10:02:53;3.85;;;1.58;;
33786;SDS011;29742;51.540;9.358;2023-05-07T10:07:57;2.00;;;1.67;;
33786;SDS011;29742;51.540;9.358;2023-05-07T10:12:57;1.23;;;1.10;;
33786;SDS011;29742;51.540;9.358;2023-05-07T10:17:58;1.73;;;1.50;;
33786;SDS011;29742;51.540;9.358;2023-05-07T10:22:59;2.08;;;1.48;;
33786;SDS011;29742;51.540;9.358;2023-05-07T10:28:01;3.75;;;1.98;;
33786;SDS011;29742;51.540;9.358;2023-05-07T10:33:05;3.53;;;1.50;;
33786;SDS011;29742;51.540;9.358;2023-05-07T10:38:07;2.22;;;1.50;;
33786;SDS011;29742;51.540;9.358;2023-05-07T10:43:07;1.52;;;1.08;;
33786;SDS011;29742;51.540;9.358;2023-05-07T10:48:09;3.00;;;1.60;;
33786;SDS011;29742;51.540;9.358;2023-05-07T11:03:26;1.42;;;1.20;;
33786;SDS011;29742;51.540;9.358;2023-05-07T11:08:34;1.50;;;1.10;;
33786;SDS011;29742;51.540;9.358;2023-05-07T11:13:53;2.90;;;1.48;;
33786;SDS011;29742;51.540;9.358;2023-05-07T11:18:54;2.10;;;1.55;;
33786;SDS011;29742;51.540;9.358;2023-05-07T11:23:55;1.60;;;1.20;;
33786;SDS011;29742;51.540;9.358;2023-05-07T11:28:56;2.35;;;1.70;;
33786;SDS011;29742;51.540;9.358;2023-05-07T11:33:57;2.20;;;1.55;;
33786;SDS011;29742;51.540;9.358;2023-05-07T11:38:57;1.65;;;1.55;;
33786;SDS011;29742;51.540;9.358;2023-05-07T11:43:58;2.35;;;1.88;;
33786;SDS011;29742;51.540;9.358;2023-05-07T11:49:00;3.75;;;1.98;;
33786;SDS011;29742;51.540;9.358;2023-05-07T11:54:00;2.90;;;1.92;;
33786;SDS011;29742;51.540;9.358;2023-05-07T11:59:04;2.10;;;1.77;;
33786;SDS011;29742;51.540;9.358;2023-05-07T12:04:04;3.55;;;2.53;;
33786;SDS011;29742;51.540;9.358;2023-05-07T12:09:05;2.85;;;2.55;;
33786;SDS011;29742;51.540;9.358;2023-05-07T12:14:07;3.88;;;3.00;;
33786;SDS011;29742;51.540;9.358;2023-05-07T12:19:08;4.45;;;2.78;;
33786;SDS011;29742;51.540;9.358;2023-05-07T12:29:14;2.97;;;2.17;;
33786;SDS011;29742;51.540;9.358;2023-05-07T12:34:14;3.88;;;2.97;;
33786;SDS011;29742;51.540;9.358;2023-05-07T12:39:15;3.72;;;3.20;;
33786;SDS011;29742;51.540;9.358;2023-05-07T12:44:15;3.65;;;2.92;;
33786;SDS011;29742;51.540;9.358;2023-05-07T12:49:16;3.60;;;3.00;;
33786;SDS011;29742;51.540;9.358;2023-05-07T12:54:27;3.47;;;2.67;;
33786;SDS011;29742;51.540;9.358;2023-05-07T12:59:35;3.15;;;2.33;;
33786;SDS011;29742;51.540;9.358;2023-05-07T13:04:36;3.58;;;2.75;;
33786;SDS011;29742;51.540;9.358;2023-05-07T13:09:37;3.70;;;3.35;;
33786;SDS011;29742;51.540;9.358;2023-05-07T13:14:37;3.13;;;2.70;;
33786;SDS011;29742;51.540;9.358;2023-05-07T13:19:38;3.97;;;3.30;;
33786;SDS011;29742;51.540;9.358;2023-05-07T13:24:38;3.67;;;3.10;;
33786;SDS011;29742;51.540;9.358;2023-05-07T13:29:41;4.10;;;3.67;;
33786;SDS011;29742;51.540;9.358;2023-05-07T13:34:41;4.80;;;3.47;;
33786;SDS011;29742;51.540;9.358;2023-05-07T13:39:42;4.25;;;3.35;;
33786;SDS011;29742;51.540;9.358;2023-05-07T13:44:42;4.43;;;3.67;;
33786;SDS011;29742;51.540;9.358;2023-05-07T13:49:43;3.75;;;3.03;;
33786;SDS011;29742;51.540;9.358;2023-05-07T13:54:44;4.88;;;4.05;;
33786;SDS011;29742;51.540;9.358;2023-05-07T13:59:45;4.22;;;3.53;;
33786;SDS011;29742;51.540;9.358;2023-05-07T14:04:45;4.45;;;3.92;;
33786;SDS011;29742;51.540;9.358;2023-05-07T14:09:45;4.55;;;3.50;;
33786;SDS011;29742;51.540;9.358;2023-05-07T14:14:46;4.63;;;3.78;;
33786;SDS011;29742;51.540;9.358;2023-05-07T14:19:46;4.70;;;3.47;;
33786;SDS011;29742;51.540;9.358;2023-05-07T14:24:47;5.10;;;2.55;;
33786;SDS011;29742;51.540;9.358;2023-05-07T14:29:47;3.03;;;2.17;;
33786;SDS011;29742;51.540;9.358;2023-05-07T14:34:50;2.60;;;2.40;;
33786;SDS011;29742;51.540;9.358;2023-05-07T14:39:51;4.27;;;2.00;;
33786;SDS011;29742;51.540;9.358;2023-05-07T14:44:51;2.50;;;2.03;;
33786;SDS011;29742;51.540;9.358;2023-05-07T14:49:52;1.92;;;1.75;;
33786;SDS011;29742;51.540;9.358;2023-05-07T14:54:54;3.65;;;2.40;;
33786;SDS011;29742;51.540;9.358;2023-05-07T14:59:54;2.53;;;1.70;;
33786;SDS011;29742;51.540;9.358;2023-05-07T15:04:55;2.80;;;2.47;;
33786;SDS011;29742;51.540;9.358;2023-05-07T15:09:55;2.35;;;2.03;;
33786;SDS011;29742;51.540;9.358;2023-05-07T15:14:56;2.17;;;1.98;;
33786;SDS011;29742;51.540;9.358;2023-05-07T15:19:56;2.58;;;2.28;;
33786;SDS011;29742;51.540;9.358;2023-05-07T15:24:57;2.85;;;1.63;;
33786;SDS011;29742;51.540;9.358;2023-05-07T15:29:58;2.20;;;1.60;;
33786;SDS011;29742;51.540;9.358;2023-05-07T15:34:59;2.00;;;1.60;;
33786;SDS011;29742;51.540;9.358;2023-05-07T15:39:59;1.95;;;1.63;;
33786;SDS011;29742;51.540;9.358;2023-05-07T15:45:02;1.70;;;1.58;;
33786;SDS011;29742;51.540;9.358;2023-05-07T15:50:02;1.83;;;1.73;;
33786;SDS011;29742;51.540;9.358;2023-05-07T15:55:04;2.00;;;1.80;;
33786;SDS011;29742;51.540;9.358;2023-05-07T16:00:05;4.60;;;1.80;;
33786;SDS011;29742;51.540;9.358;2023-05-07T16:05:08;1.67;;;1.55;;
33786;SDS011;29742;51.540;9.358;2023-05-07T16:10:09;1.90;;;1.70;;
33786;SDS011;29742;51.540;9.358;2023-05-07T16:15:10;1.55;;;1.45;;
33786;SDS011;29742;51.540;9.358;2023-05-07T16:20:11;1.98;;;1.40;;
33786;SDS011;29742;51.540;9.358;2023-05-07T16:25:12;1.50;;;1.30;;
33786;SDS011;29742;51.540;9.358;2023-05-07T16:30:13;1.95;;;1.60;;
33786;SDS011;29742;51.540;9.358;2023-05-07T16:35:13;1.60;;;1.40;;
33786;SDS011;29742;51.540;9.358;2023-05-07T16:40:14;2.20;;;1.58;;
33786;SDS011;29742;51.540;9.358;2023-05-07T16:45:14;1.67;;;1.42;;
33786;SDS011;29742;51.540;9.358;2023-05-07T16:50:15;2.35;;;1.90;;
33786;SDS011;29742;51.540;9.358;2023-05-07T16:55:15;1.45;;;1.30;;
33786;SDS011;29742;51.540;9.358;2023-05-07T17:00:16;1.50;;;1.40;;
33786;SDS011;29742;51.540;9.358;2023-05-07T17:05:17;1.52;;;1.15;;
33786;SDS011;29742;51.540;9.358;2023-05-07T17:10:18;1.48;;;1.35;;
33786;SDS011;29742;51.540;9.358;2023-05-07T17:15:19;1.42;;;1.33;;
33786;SDS011;29742;51.540;9.358;2023-05-07T17:20:19;1.50;;;1.40;;
33786;SDS011;29742;51.540;9.358;2023-05-07T17:25:20;1.90;;;1.30;;
33786;SDS011;29742;51.540;9.358;2023-05-07T17:30:22;1.77;;;1.27;;
33786;SDS011;29742;51.540;9.358;2023-05-07T17:35:22;1.83;;;1.60;;
33786;SDS011;29742;51.540;9.358;2023-05-07T17:40:23;1.50;;;1.20;;
33786;SDS011;29742;51.540;9.358;2023-05-07T17:45:23;1.30;;;1.20;;
33786;SDS011;29742;51.540;9.358;2023-05-07T17:50:24;1.23;;;1.13;;
33786;SDS011;29742;51.540;9.358;2023-05-07T17:55:24;1.27;;;1.17;;
33786;SDS011;29742;51.540;9.358;2023-05-07T18:00:24;1.52;;;1.20;;
33786;SDS011;29742;51.540;9.358;2023-05-07T18:05:25;1.25;;;1.15;;
33786;SDS011;29742;51.540;9.358;2023-05-07T18:10:25;1.20;;;1.00;;
33786;SDS011;29742;51.540;9.358;2023-05-07T18:15:26;1.27;;;1.17;;
33786;SDS011;29742;51.540;9.358;2023-05-07T18:20:27;1.10;;;1.00;;
33786;SDS011;29742;51.540;9.358;2023-05-07T18:25:27;1.08;;;0.98;;
33786;SDS011;29742;51.540;9.358;2023-05-07T18:30:28;1.33;;;1.20;;
33786;SDS011;29742;51.540;9.358;2023-05-07T18:35:28;1.10;;;1.00;;
33786;SDS011;29742;51.540;9.358;2023-05-07T18:40:29;1.15;;;1.05;;
33786;SDS011;29742;51.540;9.358;2023-05-07T18:45:29;0.80;;;0.80;;
33786;SDS011;29742;51.540;9.358;2023-05-07T18:50:30;1.80;;;1.65;;
33786;SDS011;29742;51.540;9.358;2023-05-07T18:55:30;1.95;;;1.20;;
33786;SDS011;29742;51.540;9.358;2023-05-07T19:00:31;1.13;;;0.88;;
33786;SDS011;29742;51.540;9.358;2023-05-07T19:05:31;1.00;;;0.95;;
33786;SDS011;29742;51.540;9.358;2023-05-07T19:10:31;0.63;;;0.63;;
33786;SDS011;29742;51.540;9.358;2023-05-07T19:15:32;0.80;;;0.77;;
33786;SDS011;29742;51.540;9.358;2023-05-07T19:20:32;0.70;;;0.70;;
33786;SDS011;29742;51.540;9.358;2023-05-07T19:25:33;1.08;;;0.93;;
33786;SDS011;29742;51.540;9.358;2023-05-07T19:30:33;0.77;;;0.77;;
33786;SDS011;29742;51.540;9.358;2023-05-07T19:35:37;0.60;;;0.60;;
33786;SDS011;29742;51.540;9.358;2023-05-07T19:40:37;0.80;;;0.80;;
33786;SDS011;29742;51.540;9.358;2023-05-07T19:45:37;0.80;;;0.80;;
33786;SDS011;29742;51.540;9.358;2023-05-07T19:50:41;0.88;;;0.73;;
33786;SDS011;29742;51.540;9.358;2023-05-07T19:55:42;0.40;;;0.40;;
33786;SDS011;29742;51.540;9.358;2023-05-07T20:00:42;0.52;;;0.52;;
33786;SDS011;29742;51.540;9.358;2023-05-07T20:05:44;0.43;;;0.43;;
33786;SDS011;29742;51.540;9.358;2023-05-07T20:10:46;0.53;;;0.53;;
33786;SDS011;29742;51.540;9.358;2023-05-07T20:15:47;0.77;;;0.77;;
33786;SDS011;29742;51.540;9.358;2023-05-07T20:20:48;0.80;;;0.70;;
33786;SDS011;29742;51.540;9.358;2023-05-07T20:25:48;1.45;;;0.80;;
33786;SDS011;29742;51.540;9.358;2023-05-07T20:30:49;0.73;;;0.68;;
33786;SDS011;29742;51.540;9.358;2023-05-07T20:35:49;0.77;;;0.77;;
33786;SDS011;29742;51.540;9.358;2023-05-07T20:40:50;0.52;;;0.52;;
33786;SDS011;29742;51.540;9.358;2023-05-07T20:45:59;0.60;;;0.52;;
33786;SDS011;29742;51.540;9.358;2023-05-07T20:51:01;0.63;;;0.63;;
33786;SDS011;29742;51.540;9.358;2023-05-07T20:56:02;0.75;;;0.73;;
33786;SDS011;29742;51.540;9.358;2023-05-07T21:01:02;0.77;;;0.77;;
33786;SDS011;29742;51.540;9.358;2023-05-07T21:06:03;0.73;;;0.73;;
33786;SDS011;29742;51.540;9.358;2023-05-07T21:11:04;0.80;;;0.77;;
33786;SDS011;29742;51.540;9.358;2023-05-07T21:16:05;0.52;;;0.50;;
33786;SDS011;29742;51.540;9.358;2023-05-07T21:21:08;0.85;;;0.70;;
33786;SDS011;29742;51.540;9.358;2023-05-07T21:26:09;0.80;;;0.77;;
33786;SDS011;29742;51.540;9.358;2023-05-07T21:31:16;0.55;;;0.55;;
33786;SDS011;29742;51.540;9.358;2023-05-07T21:36:17;0.75;;;0.75;;
33786;SDS011;29742;51.540;9.358;2023-05-07T21:41:17;0.75;;;0.60;;
33786;SDS011;29742;51.540;9.358;2023-05-07T21:46:19;0.88;;;0.65;;
33786;SDS011;29742;51.540;9.358;2023-05-07T21:51:19;0.70;;;0.65;;
33786;SDS011;29742;51.540;9.358;2023-05-07T21:56:20;0.70;;;0.70;;
33786;SDS011;29742;51.540;9.358;2023-05-07T22:01:21;0.60;;;0.60;;
33786;SDS011;29742;51.540;9.358;2023-05-07T22:06:21;0.77;;;0.70;;
33786;SDS011;29742;51.540;9.358;2023-05-07T22:11:21;1.02;;;0.80;;
33786;SDS011;29742;51.540;9.358;2023-05-07T22:16:22;0.70;;;0.57;;
33786;SDS011;29742;51.540;9.358;2023-05-07T22:21:22;0.40;;;0.32;;
33786;SDS011;29742;51.540;9.358;2023-05-07T22:26:22;0.50;;;0.50;;
33786;SDS011;29742;51.540;9.358;2023-05-07T22:31:23;0.43;;;0.43;;
33786;SDS011;29742;51.540;9.358;2023-05-07T22:36:23;1.17;;;0.85;;
33786;SDS011;29742;51.540;9.358;2023-05-07T22:41:24;0.73;;;0.60;;
33786;SDS011;29742;51.540;9.358;2023-05-07T22:46:24;0.57;;;0.40;;
33786;SDS011;29742;51.540;9.358;2023-05-07T22:51:25;0.40;;;0.40;;
33786;SDS011;29742;51.540;9.358;2023-05-07T22:56:26;0.65;;;0.65;;
33786;SDS011;29742;51.540;9.358;2023-05-07T23:01:26;0.57;;;0.50;;
33786;SDS011;29742;51.540;9.358;2023-05-07T23:06:27;0.40;;;0.40;;
33786;SDS011;29742;51.540;9.358;2023-05-07T23:11:27;0.70;;;0.70;;
33786;SDS011;29742;51.540;9.358;2023-05-07T23:16:27;0.57;;;0.57;;
33786;SDS011;29742;51.540;9.358;2023-05-07T23:21:28;0.68;;;0.68;;
33786;SDS011;29742;51.540;9.358;2023-05-07T23:26:28;0.50;;;0.50;;
33786;SDS011;29742;51.540;9.358;2023-05-07T23:31:29;0.68;;;0.68;;
33786;SDS011;29742;51.540;9.358;2023-05-07T23:36:30;0.85;;;0.60;;
33786;SDS011;29742;51.540;9.358;2023-05-07T23:41:31;0.85;;;0.73;;
33786;SDS011;29742;51.540;9.358;2023-05-07T23:46:31;0.68;;;0.68;;
33786;SDS011;29742;51.540;9.358;2023-05-07T23:51:32;0.45;;;0.43;;
33786;SDS011;29742;51.540;9.358;2023-05-07T23:56:32;0.60;;;0.60;;
